^^
Grace C. Lehan Memorial Weather Station Historical Data
Daily Summary for April 28, 2021 Units:  English    Metric   Both
Daily Weekly Monthly Yearly
  High: Low: Average:
Temperature: 47.2 °F 32.3 °F 39.6 °F
Dew Point: 41.3 °F 29.2 °F 34.9 °F
Humidity: 95% 69.8% 84%
Wind Speed: 7.5mph 0mph 0.7mph
Wind Gust: 15mph - -
Wind- - West
Pressure: 29.89 in 29.76 in -
Precipitation: 0.09 in    
 
 
Tabular Data for April 28, 2021
Time Temperature Dew Point Pressure Wind Wind Speed Wind Gust Humidity Rainfall Rate (Hourly) solar
00:04 32.4 °F 29.2 °F 29.84 in Calm   2 mph 88% 0.00 in 0 W/m2
00:09 32.4 °F 29.3 °F 29.83 in Calm     88% 0.00 in 0 W/m2
00:14 32.4 °F 29.2 °F 29.83 in Calm     88% 0.00 in 0 W/m2
00:19 32.3 °F 29.2 °F 29.82 in Calm     88% 0.00 in 0 W/m2
00:24 32.3 °F 29.2 °F 29.82 in Calm     88% 0.00 in 0 W/m2
00:29 32.4 °F 29.4 °F 29.83 in Calm     88.8% 0.00 in 0 W/m2
00:34 32.4 °F 29.5 °F 29.83 in Calm     89% 0.00 in 0 W/m2
00:39 32.4 °F 29.5 °F 29.82 in Calm     89% 0.00 in 0 W/m2
00:44 32.4 °F 29.6 °F 29.82 in Calm     89% 0.00 in 0 W/m2
00:49 32.5 °F 29.6 °F 29.81 in Calm     89% 0.00 in 0 W/m2
00:54 32.6 °F 29.7 °F 29.81 in Calm     89% 0.00 in 0 W/m2
00:59 32.6 °F 29.7 °F 29.81 in Calm     89% 0.00 in 0 W/m2
01:04 32.6 °F 29.8 °F 29.82 in Calm     89.4% 0.00 in 0 W/m2
01:09 32.6 °F 30 °F 29.82 in Calm     90% 0.00 in 0 W/m2
01:14 32.7 °F 30.1 °F 29.81 in Calm     90% 0.00 in 0 W/m2
01:19 32.7 °F 30.1 °F 29.80 in Calm     90% 0.00 in 0 W/m2
01:24 32.7 °F 30.1 °F 29.80 in Calm     90% 0.00 in 0 W/m2
01:29 32.6 °F 30 °F 29.80 in Calm     90% 0.00 in 0 W/m2
01:34 32.6 °F 30 °F 29.80 in Calm     90% 0.00 in 0 W/m2
01:39 32.6 °F 30 °F 29.80 in Calm     90% 0.00 in 0 W/m2
01:44 32.6 °F 30 °F 29.80 in Calm     90% 0.00 in 0 W/m2
01:49 32.7 °F 30.1 °F 29.80 in Calm     90% 0.00 in 0 W/m2
01:54 32.7 °F 30.1 °F 29.80 in Calm     90% 0.00 in 0 W/m2
01:59 32.8 °F 30.2 °F 29.80 in Calm     90% 0.00 in 0 W/m2
02:04 32.8 °F 30.2 °F 29.79 in Calm     90% 0.00 in 0 W/m2
02:09 32.8 °F 30.2 °F 29.80 in Calm     90.1% 0.00 in 0 W/m2
02:14 32.8 °F 30.5 °F 29.80 in Calm     91% 0.00 in 0 W/m2
02:19 32.9 °F 30.6 °F 29.80 in Calm     91% 0.00 in 0 W/m2
02:24 32.9 °F 30.6 °F 29.80 in Calm     91% 0.00 in 0 W/m2
02:25 33 °F 30.7 °F 29.80 in Calm     91% 0.00 in 0 W/m2
02:30 33.1 °F 30.8 °F 29.80 in Calm   2 mph 91% 0.00 in 0 W/m2
03:00 33.2 °F 31.1 °F 29.79 in Calm   3 mph 92% 0.00 in 0 W/m2
03:30 33.2 °F 31.1 °F 29.80 in NNE 1 mph 4 mph 92% 0.00 in 0 W/m2
04:04 33.1 °F 31.3 °F 29.80 in NNE 0.1 mph 4 mph 92.9% 0.00 in 0 W/m2
04:09 33.1 °F 31.3 °F 29.78 in Calm   1 mph 93% 0.00 in 0 W/m2
04:14 33.1 °F 31.3 °F 29.78 in Calm   1 mph 93% 0.00 in 0 W/m2
04:19 33.1 °F 31.3 °F 29.78 in Calm   1 mph 93% 0.00 in 0 W/m2
04:24 33.2 °F 31.4 °F 29.78 in Calm   1 mph 93% 0.00 in 0 W/m2
04:29 33.2 °F 31.4 °F 29.78 in Calm   1 mph 93% 0.00 in 0 W/m2
04:34 33.2 °F 31.4 °F 29.78 in Calm   1 mph 93% 0.00 in 0 W/m2
04:39 33.2 °F 31.4 °F 29.78 in Calm     93% 0.00 in 0 W/m2
04:44 33.2 °F 31.4 °F 29.78 in Calm     93% 0.00 in 0 W/m2
04:49 33.2 °F 31.4 °F 29.78 in Calm     93% 0.00 in 0 W/m2
04:54 33.3 °F 31.5 °F 29.78 in Calm     93% 0.00 in 0 W/m2
04:59 33.3 °F 31.5 °F 29.78 in Calm     93% 0.00 in 0 W/m2
05:04 33.4 °F 31.6 °F 29.78 in Calm     93% 0.00 in 0 W/m2
05:09 33.4 °F 31.6 °F 29.78 in Calm     93% 0.00 in 0 W/m2
05:14 33.4 °F 31.6 °F 29.78 in Calm     93% 0.00 in 0 W/m2
05:19 33.4 °F 31.6 °F 29.78 in Calm     93% 0.00 in 0 W/m2
05:24 33.4 °F 31.6 °F 29.78 in Calm     93% 0.00 in 0 W/m2
05:29 33.4 °F 31.6 °F 29.78 in Calm     93% 0.00 in 0 W/m2
05:34 33.5 °F 31.9 °F 29.78 in Calm     93.6% 0.00 in 0 W/m2
05:39 33.6 °F 32 °F 29.78 in Calm     94% 0.00 in 0 W/m2
05:44 33.6 °F 32.1 °F 29.78 in Calm     94% 0.00 in 0 W/m2
05:49 33.6 °F 32.1 °F 29.77 in Calm     94% 0.00 in 0 W/m2
05:54 33.6 °F 32.1 °F 29.77 in Calm     94% 0.00 in 0 W/m2
05:59 33.6 °F 32.1 °F 29.77 in Calm     94% 0.00 in 0 W/m2
06:04 33.6 °F 32.1 °F 29.77 in Calm     94% 0.00 in 0 W/m2
06:09 33.6 °F 32.1 °F 29.77 in Calm     94% 0.00 in 0 W/m2
06:14 33.7 °F 32.2 °F 29.77 in Calm     94% 0.00 in 0 W/m2
06:19 33.7 °F 32.2 °F 29.78 in Calm     94% 0.00 in 0 W/m2
06:24 33.7 °F 32.2 °F 29.77 in Calm     94% 0.00 in 0 W/m2
06:29 33.7 °F 32.2 °F 29.77 in Calm     94% 0.00 in 0 W/m2
06:34 33.7 °F 32.2 °F 29.77 in Calm     94% 0.00 in 0 W/m2
06:39 33.7 °F 32.2 °F 29.78 in Calm     94% 0.00 in 0 W/m2
06:44 33.7 °F 32.2 °F 29.78 in Calm     94% 0.00 in 0 W/m2
06:49 33.7 °F 32.2 °F 29.78 in Calm     94% 0.00 in 0 W/m2
06:54 33.7 °F 32.2 °F 29.78 in Calm     94% 0.00 in 0 W/m2
06:59 33.7 °F 32.2 °F 29.79 in Calm     94% 0.00 in 0 W/m2
07:04 33.7 °F 32.2 °F 29.79 in Calm     94% 0.00 in 0 W/m2
07:09 33.7 °F 32.2 °F 29.80 in Calm     94% 0.00 in 0 W/m2
07:14 33.7 °F 32.2 °F 29.81 in Calm     94% 0.00 in 0 W/m2
07:19 33.8 °F 32.3 °F 29.81 in Calm     94% 0.00 in 0 W/m2
07:24 33.8 °F 32.3 °F 29.81 in Calm     94% 0.00 in 0 W/m2
07:29 33.8 °F 32.3 °F 29.81 in Calm     94% 0.00 in 0 W/m2
07:34 33.8 °F 32.3 °F 29.81 in Calm     94% 0.00 in 0 W/m2
07:39 33.8 °F 32.3 °F 29.81 in Calm     94% 0.00 in 0 W/m2
07:44 33.8 °F 32.3 °F 29.80 in Calm     94% 0.00 in 9 W/m2
07:49 33.8 °F 32.3 °F 29.80 in Calm     94% 0.00 in 12 W/m2
07:54 33.8 °F 32.3 °F 29.79 in Calm     94% 0.00 in 18 W/m2
07:59 33.8 °F 32.3 °F 29.80 in Calm     94% 0.00 in 18 W/m2
08:04 33.9 °F 32.4 °F 29.80 in Calm     94% 0.01 in 21 W/m2
08:09 34 °F 32.4 °F 29.80 in Calm     94% 0.01 in 25 W/m2
08:14 34.1 °F 32.6 °F 29.81 in Calm     94.2% 0.01 in 28 W/m2
08:19 34.2 °F 32.9 °F 29.81 in Calm     95% 0.01 in 30 W/m2
08:24 34.2 °F 32.9 °F 29.81 in Calm     95% 0.01 in 35 W/m2
08:29 34.3 °F 33 °F 29.81 in Calm     95% 0.02 in 33 W/m2
08:34 34.3 °F 33 °F 29.82 in Calm   1 mph 95% 0.02 in 28 W/m2
08:39 34.4 °F 33.1 °F 29.82 in Calm   1 mph 95% 0.02 in 33 W/m2
08:44 34.4 °F 33.2 °F 29.82 in Calm   1 mph 95% 0.02 in 51 W/m2
08:49 34.5 °F 33.2 °F 29.81 in Calm   1 mph 95% 0.02 in 54 W/m2
08:54 34.5 °F 33.2 °F 29.81 in Calm   1 mph 95% 0.02 in 65 W/m2
08:59 34.6 °F 33.3 °F 29.81 in Calm   1 mph 95% 0.02 in 69 W/m2
09:04 34.7 °F 33.4 °F 29.81 in Calm   1 mph 95% 0.02 in 156 W/m2
09:09 34.9 °F 33.6 °F 29.81 in Calm     95% 0.00 in 156 W/m2
09:14 35.2 °F 33.9 °F 29.81 in Calm     95% 0.00 in 253 W/m2
09:19 35.7 °F 34.4 °F 29.82 in Calm     95% 0.00 in 267 W/m2
09:24 36.2 °F 34.9 °F 29.82 in Calm     95% 0.00 in 107 W/m2
09:29 36.5 °F 35.2 °F 29.82 in Calm     95% 0.00 in 153 W/m2
09:34 36.8 °F 35.5 °F 29.82 in Calm     95% 0.00 in 153 W/m2
09:39 37 °F 35.7 °F 29.82 in Calm     95% 0.00 in 160 W/m2
09:44 37.2 °F 35.9 °F 29.82 in Calm     95% 0.00 in 155 W/m2
09:49 37.3 °F 36 °F 29.82 in Calm     95% 0.00 in 158 W/m2
09:54 37.5 °F 36.2 °F 29.82 in Calm     95% 0.00 in 83 W/m2
09:59 37.8 °F 36.5 °F 29.82 in Calm   1 mph 95% 0.00 in 125 W/m2
10:04 38.2 °F 36.9 °F 29.81 in Calm   1 mph 95% 0.00 in 148 W/m2
10:09 38.6 °F 37.3 °F 29.81 in Calm     95% 0.00 in 185 W/m2
10:14 39.2 °F 37.9 °F 29.81 in NNE 0.6 mph 4 mph 95% 0.01 in 232 W/m2
10:19 40 °F 38.7 °F 29.81 in North 1.1 mph 5 mph 95% 0.01 in 311 W/m2
10:24 40.9 °F 39.6 °F 29.82 in NW 1.5 mph 6 mph 95% 0.01 in 381 W/m2
10:29 42 °F 40.7 °F 29.82 in WNW 3.6 mph 12 mph 95% 0.01 in 406 W/m2
10:34 42.7 °F 41.3 °F 29.82 in WNW 5.3 mph 12 mph 94.7% 0.01 in 424 W/m2
10:39 43.4 °F 41.3 °F 29.81 in WNW 4.1 mph 12 mph 92.3% 0.02 in 415 W/m2
10:44 43.8 °F 41 °F 29.81 in WNW 3.9 mph 12 mph 89.6% 0.02 in 366 W/m2
10:49 44.1 °F 40.9 °F 29.81 in WNW 4.3 mph 12 mph 88.2% 0.02 in 322 W/m2
10:54 44.4 °F 40.7 °F 29.81 in WNW 2.7 mph 12 mph 87% 0.02 in 227 W/m2
10:59 44.6 °F 40.9 °F 29.81 in WNW 4.4 mph 12 mph 86.6% 0.02 in 160 W/m2
11:04 44.9 °F 40.9 °F 29.81 in West 2.5 mph 12 mph 86% 0.02 in 130 W/m2
11:09 45 °F 40.8 °F 29.81 in West 3.5 mph 9 mph 85.2% 0.02 in 176 W/m2
11:14 45 °F 40.6 °F 29.81 in WNW 4.7 mph 11 mph 84.4% 0.02 in 121 W/m2
11:19 45 °F 40.4 °F 29.80 in WNW 2.5 mph 11 mph 84% 0.02 in 105 W/m2
11:24 45.1 °F 40.5 °F 29.80 in West 1.8 mph 11 mph 84% 0.02 in 109 W/m2
11:29 45.3 °F 40.8 °F 29.80 in WNW 3.2 mph 11 mph 84.1% 0.02 in 151 W/m2
11:34 45.5 °F 40.9 °F 29.81 in NW 2.6 mph 11 mph 83.8% 0.02 in 193 W/m2
11:39 45.6 °F 40.6 °F 29.80 in NW 5.3 mph 13 mph 82.5% 0.01 in 165 W/m2
11:44 45.6 °F 39.9 °F 29.80 in WNW 7.5 mph 15 mph 80.1% 0.01 in 188 W/m2
11:49 45.5 °F 39.4 °F 29.80 in NW 6.2 mph 15 mph 79% 0.01 in 137 W/m2
11:54 45.4 °F 39.2 °F 29.79 in WNW 3.9 mph 15 mph 78.7% 0.01 in 111 W/m2
11:59 45.5 °F 39.2 °F 29.79 in WNW 4.4 mph 15 mph 78.4% 0.01 in 79 W/m2
12:00 45.5 °F 39.1 °F 29.78 in WNW 2 mph 15 mph 78% 0.01 in 56 W/m2
12:09 45.5 °F 39.1 °F 29.78 in West 2.4 mph 7 mph 78% 0.01 in 123 W/m2
12:14 45.8 °F 39.6 °F 29.78 in WSW 1.3 mph 7 mph 78.8% 0.01 in 450 W/m2
12:19 46.3 °F 39.8 °F 29.78 in West 2.6 mph 7 mph 78.2% 0.01 in 446 W/m2
12:24 46.7 °F 39.7 °F 29.77 in West 3.6 mph 10 mph 76.6% 0.01 in 411 W/m2
12:29 46.8 °F 39.2 °F 29.77 in WNW 5.5 mph 14 mph 74.7% 0.01 in 67 W/m2
12:34 46.6 °F 38.8 °F 29.77 in NW 4.3 mph 14 mph 74% 0.01 in 90 W/m2
12:39 46.5 °F 38.7 °F 29.77 in WNW 4.4 mph 11 mph 74% 0.00 in 243 W/m2
12:44 46.6 °F 38.7 °F 29.77 in WNW 6 mph 13 mph 73.6% 0.00 in 445 W/m2
12:49 46.8 °F 38.6 °F 29.77 in WNW 3.6 mph 13 mph 73% 0.00 in 445 W/m2
12:54 47.1 °F 38.4 °F 29.77 in WNW 4.5 mph 13 mph 71.5% 0.00 in 216 W/m2
12:59 47.2 °F 38.3 °F 29.76 in WNW 2 mph 13 mph 71% 0.00 in 97 W/m2
13:04 47.1 °F 38.2 °F 29.76 in WNW 3 mph 13 mph 70.9% 0.00 in 77 W/m2
13:09 46.8 °F 37.8 °F 29.77 in WNW 1.2 mph 10 mph 70.7% 0.00 in 95 W/m2
13:14 46.5 °F 37.6 °F 29.77 in WNW 4.4 mph 10 mph 71% 0.00 in 100 W/m2
13:19 46.1 °F 37.2 °F 29.77 in WNW 4.8 mph 11 mph 71% 0.00 in 185 W/m2
13:24 45.8 °F 37 °F 29.77 in WNW 3.2 mph 11 mph 71% 0.00 in 185 W/m2
13:29 45.8 °F 37.3 °F 29.76 in WNW 3.4 mph 11 mph 72% 0.00 in 251 W/m2
13:34 45.8 °F 37.2 °F 29.76 in WNW 3 mph 11 mph 71.8% 0.00 in 121 W/m2
13:39 45.8 °F 37.1 °F 29.76 in WNW 1.6 mph 11 mph 71.5% 0.00 in 135 W/m2
13:44 45.9 °F 37.4 °F 29.76 in WNW 0.6 mph 11 mph 72% 0.00 in 137 W/m2
13:49 46 °F 37.5 °F 29.76 in Calm   11 mph 72% 0.00 in 141 W/m2
13:54 46.1 °F 37.5 °F 29.76 in West 2 mph 11 mph 71.9% 0.00 in 192 W/m2
13:59 46.2 °F 37.4 °F 29.76 in WSW 1.9 mph 11 mph 71% 0.00 in 167 W/m2
14:04 46.5 °F 37.8 °F 29.77 in WSW 1.1 mph 11 mph 71.6% 0.00 in 163 W/m2
14:09 46.7 °F 37.8 °F 29.77 in WSW 1.9 mph 6 mph 71.2% 0.00 in 134 W/m2
14:14 46.7 °F 37.4 °F 29.77 in West 1.7 mph 8 mph 70% 0.00 in 81 W/m2
14:19 46.5 °F 37.2 °F 29.76 in West 1.3 mph 8 mph 69.8% 0.00 in 91 W/m2
14:24 46.4 °F 37.1 °F 29.76 in West 0.9 mph 8 mph 70% 0.00 in 98 W/m2
14:29 46.3 °F 37.4 °F 29.76 in West 1.3 mph 8 mph 71% 0.00 in 98 W/m2
14:34 46.2 °F 37.2 °F 29.77 in West 0.3 mph 8 mph 70.6% 0.00 in 98 W/m2
14:39 46.2 °F 37.5 °F 29.78 in West 0.4 mph 5 mph 71.3% 0.00 in 95 W/m2
14:44 46.2 °F 37.4 °F 29.78 in West 0.5 mph 5 mph 71.2% 0.00 in 95 W/m2
14:49 46.2 °F 37.4 °F 29.78 in West 1.9 mph 7 mph 71.1% 0.00 in 90 W/m2
14:54 46.2 °F 37.3 °F 29.78 in West 0.1 mph 7 mph 71% 0.00 in 93 W/m2
14:59 46.2 °F 37.3 °F 29.78 in West 0.5 mph 7 mph 71% 0.00 in 93 W/m2
15:04 46.2 °F 37.6 °F 29.78 in West 0.7 mph 7 mph 71.8% 0.00 in 72 W/m2
15:09 46.2 °F 37.4 °F 29.77 in West 0.2 mph 5 mph 71.1% 0.00 in 76 W/m2
15:14 46.2 °F 37.3 °F 29.77 in West 0.3 mph 5 mph 71% 0.00 in 49 W/m2
15:19 46.1 °F 37.2 °F 29.77 in West 0.4 mph 5 mph 71% 0.00 in 47 W/m2
15:24 46 °F 37.1 °F 29.77 in Calm   5 mph 71% 0.00 in 47 W/m2
15:29 45.9 °F 37.1 °F 29.78 in Calm   5 mph 71.2% 0.00 in 40 W/m2
15:34 45.9 °F 37.1 °F 29.78 in Calm   5 mph 71.2% 0.00 in 33 W/m2
15:39 45.8 °F 37.1 °F 29.78 in Calm     71.5% 0.00 in 28 W/m2
15:44 45.7 °F 37.2 °F 29.78 in Calm     71.8% 0.00 in 26 W/m2
15:49 45.6 °F 36.9 °F 29.77 in Calm   1 mph 71.5% 0.00 in 19 W/m2
15:54 45.5 °F 37 °F 29.78 in West 0.2 mph 2 mph 72% 0.00 in 28 W/m2
15:59 45.4 °F 36.9 °F 29.78 in Calm   2 mph 72% 0.00 in 28 W/m2
16:00 45.4 °F 36.9 °F 29.78 in Calm   2 mph 72% 0.00 in 21 W/m2
16:09 45.3 °F 36.8 °F 29.79 in Calm     72% 0.00 in 11 W/m2
16:14 45.2 °F 36.7 °F 29.80 in Calm     72% 0.00 in 7 W/m2
16:19 45.1 °F 36.6 °F 29.80 in Calm     72% 0.00 in 0 W/m2
16:24 45 °F 36.5 °F 29.80 in Calm     72% 0.00 in 0 W/m2
16:29 44.8 °F 36.6 °F 29.80 in Calm     72.6% 0.00 in 0 W/m2
16:34 44.6 °F 36.5 °F 29.81 in Calm     73% 0.00 in 0 W/m2
16:39 44.5 °F 36.6 °F 29.81 in Calm     73.6% 0.00 in 0 W/m2
16:44 44.4 °F 36.6 °F 29.83 in Calm     74% 0.00 in 0 W/m2
16:49 44.2 °F 36.5 °F 29.83 in Calm     74% 0.00 in 0 W/m2
16:54 44.1 °F 36.5 °F 29.84 in Calm     74.3% 0.00 in 0 W/m2
16:59 44 °F 36.6 °F 29.85 in Calm     75% 0.00 in 0 W/m2
17:04 43.9 °F 36.5 °F 29.86 in Calm     75% 0.00 in 0 W/m2
17:09 43.8 °F 36.5 °F 29.86 in Calm     75.2% 0.00 in 0 W/m2
17:14 43.8 °F 36.7 °F 29.87 in Calm     76% 0.00 in 0 W/m2
17:19 43.7 °F 36.7 °F 29.87 in Calm   2 mph 76% 0.00 in 0 W/m2
17:24 43.6 °F 36.6 °F 29.88 in Calm   2 mph 76% 0.00 in 0 W/m2
17:29 43.6 °F 36.5 °F 29.87 in West 0.2 mph 3 mph 76% 0.00 in 0 W/m2
17:34 43.5 °F 36.4 °F 29.87 in Calm   3 mph 75.7% 0.00 in 0 W/m2
17:39 43.5 °F 36.1 °F 29.89 in Calm     75% 0.00 in 0 W/m2
17:44 43.5 °F 36.1 °F 29.89 in Calm     75% 0.00 in 0 W/m2
17:49 43.4 °F 36 °F 29.89 in West 0.1 mph 2 mph 75% 0.00 in 0 W/m2
17:54 43.4 °F 36 °F 29.89 in Calm   2 mph 75% 0.00 in 0 W/m2
17:59 43.4 °F 36 °F 29.88 in Calm   2 mph 75% 0.00 in 0 W/m2
18:04 43.4 °F 36 °F 29.88 in Calm   2 mph 75% 0.00 in 0 W/m2
18:09 43.4 °F 36 °F 29.88 in Calm     75% 0.00 in 0 W/m2
18:14 43.4 °F 36 °F 29.88 in Calm     75% 0.00 in 0 W/m2
18:19 43.3 °F 35.9 °F 29.88 in Calm     75% 0.00 in 0 W/m2
18:24 43.2 °F 35.9 °F 29.87 in Calm     75% 0.00 in 0 W/m2
18:29 43.2 °F 35.8 °F 29.86 in Calm     75% 0.00 in 0 W/m2
18:34 43.1 °F 35.7 °F 29.86 in West 0.8 mph 4 mph 74.9% 0.00 in 0 W/m2
18:39 43 °F 35.3 °F 29.87 in Calm   4 mph 74% 0.00 in 0 W/m2
18:44 43 °F 35.6 °F 29.87 in Calm   4 mph 74.9% 0.00 in 0 W/m2
18:49 43 °F 35.9 °F 29.88 in Calm   4 mph 76% 0.00 in 0 W/m2
18:54 42.9 °F 35.9 °F 29.88 in Calm   4 mph 76% 0.00 in 0 W/m2
18:59 42.8 °F 35.7 °F 29.88 in West 0.1 mph 4 mph 76% 0.00 in 0 W/m2
19:04 42.7 °F 35.5 °F 29.88 in West 0.1 mph 4 mph 75.5% 0.00 in 0 W/m2
19:09 42.6 °F 35.2 °F 29.88 in West 0.4 mph 3 mph 74.7% 0.00 in 0 W/m2
19:14 42.7 °F 35 °F 29.87 in Calm   3 mph 74% 0.00 in 0 W/m2
19:19 42.7 °F 34.9 °F 29.87 in West 0.9 mph 5 mph 73.8% 0.00 in 0 W/m2
19:24 42.7 °F 34.5 °F 29.87 in West 0.3 mph 5 mph 72.6% 0.00 in 0 W/m2
19:29 42.7 °F 34.3 °F 29.88 in West 1.4 mph 5 mph 72% 0.00 in 0 W/m2
19:34 42.8 °F 34.3 °F 29.89 in West 0.1 mph 5 mph 71.8% 0.00 in 0 W/m2
19:39 42.9 °F 34.4 °F 29.88 in West 0.7 mph 4 mph 71.7% 0.00 in 0 W/m2
19:44 42.8 °F 34.2 °F 29.88 in WNW 0.8 mph 4 mph 71.4% 0.00 in 0 W/m2
19:49 42.8 °F 34.1 °F 29.88 in WNW 0.7 mph 4 mph 71% 0.00 in 0 W/m2
19:54 42.8 °F 34.1 °F 29.88 in WNW 0.4 mph 4 mph 71% 0.00 in 0 W/m2
19:59 42.8 °F 34.1 °F 29.87 in NW 0.9 mph 4 mph 71% 0.00 in 0 W/m2
20:00 42.8 °F 34.1 °F 29.86 in Calm   4 mph 71% 0.00 in 0 W/m2
20:09 42.8 °F 34.1 °F 29.84 in Calm     71% 0.00 in 0 W/m2
20:14 42.8 °F 34.3 °F 29.84 in Calm   1 mph 71.6% 0.00 in 0 W/m2
20:19 42.8 °F 34.6 °F 29.84 in Calm   1 mph 72.7% 0.00 in 0 W/m2
20:24 42.7 °F 34.3 °F 29.84 in Calm   1 mph 72% 0.00 in 0 W/m2
20:29 42.7 °F 34.3 °F 29.84 in NW 0.1 mph 2 mph 72% 0.00 in 0 W/m2
20:34 42.6 °F 34.2 °F 29.84 in Calm   2 mph 72% 0.00 in 0 W/m2
20:39 42.6 °F 34.5 °F 29.83 in Calm     72.8% 0.00 in 0 W/m2
20:44 42.5 °F 34.5 °F 29.83 in NW 0.1 mph 3 mph 73% 0.00 in 0 W/m2
20:49 42.5 °F 34.5 °F 29.83 in Calm   3 mph 73% 0.00 in 0 W/m2
20:54 42.4 °F 34.4 °F 29.83 in NW 1.1 mph 7 mph 73% 0.00 in 0 W/m2
20:59 42.4 °F 34.6 °F 29.83 in NNW 1.1 mph 7 mph 73.7% 0.00 in 0 W/m2
21:04 42.2 °F 35 °F 29.84 in North 1.3 mph 7 mph 75.5% 0.00 in 0 W/m2
21:09 42 °F 35.2 °F 29.85 in NNW 2.5 mph 10 mph 76.6% 0.00 in 0 W/m2
21:14 41.7 °F 35.1 °F 29.85 in North 3.3 mph 10 mph 77.4% 0.00 in 0 W/m2
21:19 41.3 °F 35 °F 29.87 in North 1.6 mph 12 mph 78.1% 0.01 in 0 W/m2
21:24 41 °F 35.2 °F 29.87 in NNE 3.1 mph 12 mph 79.5% 0.01 in 0 W/m2
21:29 40.7 °F 35.2 °F 29.87 in NW 0.7 mph 12 mph 80.6% 0.01 in 0 W/m2
21:34 40.5 °F 35.4 °F 29.86 in NW 0.4 mph 12 mph 81.9% 0.01 in 0 W/m2
21:39 40.3 °F 35.5 °F 29.87 in NW 1.2 mph 5 mph 82.9% 0.01 in 0 W/m2
21:44 40 °F 35.4 °F 29.87 in Calm   5 mph 83.6% 0.01 in 0 W/m2
21:49 39.8 °F 35.3 °F 29.87 in Calm   5 mph 84% 0.01 in 0 W/m2
21:54 39.6 °F 35.4 °F 29.87 in Calm   5 mph 84.8% 0.01 in 0 W/m2
21:59 39.4 °F 35.3 °F 29.87 in Calm   5 mph 85% 0.01 in 0 W/m2
22:04 39.3 °F 35.4 °F 29.85 in Calm   5 mph 85.9% 0.02 in 0 W/m2
22:09 39.1 °F 35.3 °F 29.86 in Calm     86.1% 0.02 in 0 W/m2
22:14 38.9 °F 35.4 °F 29.85 in Calm     87.1% 0.02 in 0 W/m2
22:19 38.8 °F 35.5 °F 29.85 in Calm     88% 0.02 in 0 W/m2
22:24 38.7 °F 35.5 °F 29.84 in Calm     88% 0.02 in 0 W/m2
22:29 38.6 °F 35.5 °F 29.84 in Calm     88.4% 0.02 in 0 W/m2
22:34 38.6 °F 35.6 °F 29.84 in NW 0.4 mph 2 mph 89% 0.02 in 0 W/m2
22:39 38.6 °F 35.7 °F 29.85 in Calm   2 mph 89.3% 0.01 in 0 W/m2
22:44 38.6 °F 35.9 °F 29.85 in Calm   2 mph 90% 0.02 in 0 W/m2
22:49 38.6 °F 35.9 °F 29.85 in Calm   2 mph 90% 0.03 in 0 W/m2
22:54 38.6 °F 35.9 °F 29.85 in Calm   2 mph 90% 0.03 in 0 W/m2
22:59 38.6 °F 35.9 °F 29.85 in Calm   2 mph 90% 0.03 in 0 W/m2
23:00 38.5 °F 35.8 °F 29.85 in Calm   2 mph 90% 0.03 in 0 W/m2
23:09 38.4 °F 36 °F 29.86 in Calm     91% 0.03 in 0 W/m2
23:14 38.4 °F 36 °F 29.86 in Calm     91% 0.03 in 0 W/m2
23:19 38.3 °F 35.9 °F 29.86 in Calm     91% 0.03 in 0 W/m2
23:24 38.3 °F 35.9 °F 29.85 in Calm     91% 0.03 in 0 W/m2
23:29 38.2 °F 35.8 °F 29.85 in Calm     91% 0.03 in 0 W/m2
23:34 38.1 °F 35.8 °F 29.85 in Calm     91.3% 0.03 in 0 W/m2
23:39 38.1 °F 36 °F 29.85 in Calm     92% 0.03 in 0 W/m2
23:44 38 °F 35.9 °F 29.84 in Calm     92% 0.03 in 0 W/m2
23:49 38 °F 35.9 °F 29.84 in Calm     92% 0.03 in 0 W/m2
23:54 38 °F 35.9 °F 29.84 in Calm     92% 0.03 in 0 W/m2
23:59 38 °F 35.9 °F 29.85 in Calm     92% 0.03 in 0 W/m2
Hartford County Weather
Compliments of Weather Underground - 2 mb